Bayou Rouge, Louisiana
Current Conditions -  °F | °C
As of 1:15 PM on Tuesday 21 Oct 2014 (Local Time) from KHZR Reporting Station
Clear Clear  
Wind Chill: 78°   Ceiling: Unl
Heat Index: 79°   Visibility: 10mi
Dew Point: 55°   Wind: 8mph
Humidity: 45%   Direction: 30°NNE
Pressure: 30.05"   Gusts: 16mph
Location:  30.6648°N, 91.7944°W
Report Text: KHZR 211815Z AUTO 03007G14KT 10SM CLR 25/13 A3005 RMK AO2 T02540125
Loading
Personal Weather Stations






























Interactive Weather Map
Tropical Storm Tracking
New forecast layout! Learn more

10-Day Weather Forecast

Advertisements
Track Severe Weather on mobile